createdAt,value
2022-12-25T00:01:20.766Z,6.25
2022-12-25T00:03:48.046Z,6.65
2022-12-25T00:06:15.477Z,7.18
2022-12-25T00:08:42.873Z,6.10
2022-12-25T00:11:12.393Z,5.75
2022-12-25T00:13:39.883Z,5.97
2022-12-25T00:16:11.513Z,5.28
2022-12-25T00:18:38.655Z,6.03
2022-12-25T00:21:06.995Z,7.65
2022-12-25T00:23:34.956Z,5.75
2022-12-25T00:26:05.162Z,5.43
2022-12-25T00:28:32.355Z,5.93
2022-12-25T00:30:59.641Z,5.20
2022-12-25T00:33:27.053Z,5.93
2022-12-25T00:36:00.950Z,5.78
2022-12-25T00:38:28.425Z,4.65
2022-12-25T00:40:55.504Z,5.68
2022-12-25T00:43:22.918Z,5.30
2022-12-25T00:45:57.874Z,5.53
2022-12-25T00:50:56.014Z,6.68
2022-12-25T00:53:23.390Z,4.78
2022-12-25T00:56:00.406Z,5.90
2022-12-25T00:58:28.880Z,5.88
2022-12-25T01:00:56.372Z,5.57
2022-12-25T01:03:23.880Z,6.55
2022-12-25T01:05:59.040Z,6.63
2022-12-25T01:08:26.651Z,6.53
2022-12-25T01:10:54.432Z,6.80
2022-12-25T01:13:21.875Z,5.47
2022-12-25T01:15:49.183Z,6.18
2022-12-25T01:18:16.501Z,5.20
2022-12-25T01:20:43.654Z,6.10
2022-12-25T01:23:10.819Z,6.82
2022-12-25T01:25:38.159Z,5.93
2022-12-25T01:28:05.578Z,4.97
2022-12-25T01:30:33.163Z,5.40
2022-12-25T01:33:00.466Z,5.35
2022-12-25T01:35:27.935Z,5.68
2022-12-25T01:37:55.459Z,5.30
2022-12-25T01:40:22.650Z,6.22
2022-12-25T01:42:50.134Z,6.15
2022-12-25T01:45:34.347Z,5.13
2022-12-25T01:48:03.241Z,6.45
2022-12-25T01:52:58.006Z,6.25
2022-12-25T01:55:25.461Z,5.78
2022-12-25T01:57:52.675Z,5.55
2022-12-25T02:00:22.062Z,6.03
2022-12-25T02:02:49.666Z,5.95
2022-12-25T02:05:22.034Z,7.07
2022-12-25T02:07:49.261Z,6.30
2022-12-25T02:10:16.500Z,6.53
2022-12-25T02:12:45.228Z,6.78
2022-12-25T02:15:19.990Z,7.38
2022-12-25T02:18:05.868Z,4.80
2022-12-25T02:20:35.992Z,5.82
2022-12-25T02:23:21.818Z,5.68
2022-12-25T02:25:58.100Z,6.22
2022-12-25T02:28:54.473Z,6.15
2022-12-25T02:31:30.135Z,5.85
2022-12-25T02:34:06.771Z,5.18
2022-12-25T02:36:46.761Z,6.82
2022-12-25T02:39:43.058Z,5.13
2022-12-25T02:42:14.848Z,7.25
2022-12-25T02:45:02.687Z,6.50
2022-12-25T02:47:48.910Z,6.85
2022-12-25T02:50:35.576Z,6.32
2022-12-25T02:53:22.788Z,6.93
2022-12-25T02:56:09.331Z,5.65
2022-12-25T02:58:57.493Z,5.05
2022-12-25T03:01:47.658Z,6.25
2022-12-25T03:04:36.519Z,6.03
2022-12-25T03:07:09.066Z,5.57
2022-12-25T03:10:02.773Z,5.45
2022-12-25T03:12:41.536Z,6.25
2022-12-25T03:15:29.250Z,6.57
2022-12-25T03:17:57.651Z,6.60
2022-12-25T03:20:43.615Z,6.60
2022-12-25T03:23:30.707Z,5.78
2022-12-25T03:26:16.713Z,4.85
2022-12-25T03:28:43.857Z,6.10
2022-12-25T03:31:17.135Z,7.35
2022-12-25T03:34:15.013Z,5.75
2022-12-25T03:36:55.093Z,5.13
2022-12-25T03:39:59.181Z,5.85
2022-12-25T03:42:38.888Z,5.60
2022-12-25T03:45:31.237Z,6.63
2022-12-25T03:48:18.562Z,5.28
2022-12-25T03:56:37.195Z,5.55
2022-12-25T03:59:24.261Z,5.68
2022-12-25T04:02:10.911Z,6.15
2022-12-25T04:04:56.973Z,6.05
2022-12-25T04:07:42.832Z,5.88
2022-12-25T04:10:28.885Z,5.93
2022-12-25T04:13:14.648Z,6.03
2022-12-25T04:16:00.868Z,4.90
2022-12-25T04:18:46.783Z,5.75
2022-12-25T04:21:32.941Z,6.40
2022-12-25T04:24:18.618Z,6.72
2022-12-25T04:27:04.574Z,5.10
2022-12-25T04:29:50.847Z,5.13
2022-12-25T04:32:36.552Z,6.57
2022-12-25T04:35:22.804Z,3.92
2022-12-25T04:37:50.018Z,5.93
2022-12-25T04:40:17.242Z,4.95
2022-12-25T04:42:44.430Z,5.40
2022-12-25T04:45:11.786Z,5.30
2022-12-25T04:47:39.075Z,4.35
2022-12-25T04:50:06.921Z,5.60
2022-12-25T04:52:37.832Z,4.82
2022-12-25T04:55:05.873Z,5.20
2022-12-25T04:57:33.359Z,4.38
2022-12-25T05:00:00.646Z,5.18
2022-12-25T05:02:28.051Z,5.43
2022-12-25T05:04:55.324Z,4.90
2022-12-25T05:07:22.425Z,4.63
2022-12-25T05:09:49.637Z,5.03
2022-12-25T05:12:17.107Z,4.97
2022-12-25T05:14:44.192Z,4.35
2022-12-25T05:17:11.356Z,4.57
2022-12-25T05:19:38.545Z,4.80
2022-12-25T05:22:05.686Z,4.53
2022-12-25T05:24:33.291Z,5.00
2022-12-25T05:27:00.405Z,5.18
2022-12-25T05:29:27.576Z,4.47
2022-12-25T05:31:54.670Z,4.22
2022-12-25T05:34:21.945Z,4.28
2022-12-25T05:36:49.222Z,4.28
2022-12-25T05:39:16.412Z,3.85
2022-12-25T05:41:43.522Z,4.13
2022-12-25T05:44:10.688Z,3.83
2022-12-25T05:46:37.892Z,3.90
2022-12-25T05:49:06.260Z,4.05
2022-12-25T05:51:33.693Z,3.83
2022-12-25T05:54:00.784Z,3.80
2022-12-25T05:56:27.920Z,2.83
2022-12-25T05:58:55.205Z,3.38
2022-12-25T06:01:27.864Z,3.63
2022-12-25T06:03:55.220Z,3.63
2022-12-25T06:06:22.423Z,3.38
2022-12-25T06:08:49.583Z,4.00
2022-12-25T06:11:16.907Z,3.85
2022-12-25T06:13:44.713Z,3.85
2022-12-25T06:16:12.693Z,3.60
2022-12-25T06:18:41.574Z,4.18
2022-12-25T06:21:09.231Z,3.65
2022-12-25T06:23:37.042Z,3.17
2022-12-25T06:26:06.169Z,3.53
2022-12-25T06:28:33.278Z,3.17
2022-12-25T06:31:00.426Z,4.00
2022-12-25T06:33:28.330Z,4.68
2022-12-25T06:35:55.492Z,3.85
2022-12-25T06:38:22.666Z,4.20
2022-12-25T06:40:49.932Z,3.42
2022-12-25T06:43:17.080Z,4.25
2022-12-25T06:45:44.344Z,3.90
2022-12-25T06:48:11.500Z,3.90
2022-12-25T06:50:43.302Z,4.35
2022-12-25T06:53:10.461Z,4.15
2022-12-25T06:55:37.670Z,4.70
2022-12-25T06:58:04.796Z,4.30
2022-12-25T07:00:31.918Z,4.32
2022-12-25T07:02:59.318Z,4.03
2022-12-25T07:05:26.475Z,4.20
2022-12-25T07:07:53.716Z,4.43
2022-12-25T07:10:20.854Z,4.90
2022-12-25T07:12:48.070Z,3.90
2022-12-25T07:15:15.154Z,4.13
2022-12-25T07:17:42.365Z,4.10
2022-12-25T07:20:09.814Z,4.32
2022-12-25T07:22:36.964Z,3.45
2022-12-25T07:25:04.104Z,5.07
2022-12-25T07:27:31.238Z,3.58
2022-12-25T07:29:58.531Z,4.05
2022-12-25T07:32:25.873Z,3.58
2022-12-25T07:34:52.947Z,4.43
2022-12-25T07:37:20.056Z,3.78
2022-12-25T07:39:47.125Z,3.53
2022-12-25T07:42:14.230Z,3.42
2022-12-25T07:44:41.420Z,4.18
2022-12-25T07:47:08.550Z,4.10
2022-12-25T07:49:36.885Z,4.15
2022-12-25T07:52:04.090Z,4.20
2022-12-25T07:54:31.200Z,4.63
2022-12-25T07:56:58.314Z,4.60
2022-12-25T07:59:25.437Z,4.22
2022-12-25T08:01:52.811Z,5.15
2022-12-25T08:04:20.149Z,4.03
2022-12-25T08:06:47.355Z,5.00
2022-12-25T08:09:14.486Z,4.25
2022-12-25T08:11:45.183Z,4.15
2022-12-25T08:14:12.481Z,4.45
2022-12-25T08:16:41.630Z,3.58
2022-12-25T08:19:09.685Z,4.22
2022-12-25T08:21:36.946Z,3.72
2022-12-25T08:24:04.162Z,4.68
2022-12-25T08:26:31.490Z,4.32
2022-12-25T08:28:58.927Z,3.97
2022-12-25T08:31:28.012Z,3.80
2022-12-25T08:33:56.555Z,3.45
2022-12-25T08:36:23.781Z,3.70
2022-12-25T08:38:51.576Z,3.45
2022-12-25T08:43:46.995Z,4.07
2022-12-25T08:46:14.175Z,3.85
2022-12-25T08:48:45.179Z,4.68
2022-12-25T08:51:16.675Z,3.83
2022-12-25T08:53:44.350Z,3.67
2022-12-25T08:56:11.542Z,5.03
2022-12-25T08:58:38.931Z,4.07
2022-12-25T09:01:06.594Z,4.18
2022-12-25T09:03:34.247Z,4.30
2022-12-25T09:06:09.067Z,4.40
2022-12-25T09:08:39.801Z,3.90
2022-12-25T09:11:11.442Z,4.18
2022-12-25T09:16:06.548Z,4.22
2022-12-25T09:18:33.778Z,4.60
2022-12-25T09:21:05.451Z,4.88
2022-12-25T09:23:33.762Z,4.75
2022-12-25T09:26:01.321Z,5.43
2022-12-25T09:28:28.789Z,4.88
2022-12-25T09:30:56.140Z,4.45
2022-12-25T09:33:23.385Z,4.93
2022-12-25T09:35:54.290Z,4.70
2022-12-25T09:38:22.166Z,4.72
2022-12-25T09:40:49.577Z,3.97
2022-12-25T09:43:18.500Z,5.05
2022-12-25T09:48:16.379Z,4.40
2022-12-25T09:50:52.372Z,4.50
2022-12-25T09:53:24.425Z,4.00
2022-12-25T09:56:12.229Z,3.67
2022-12-25T09:58:39.480Z,3.20
2022-12-25T10:01:06.705Z,4.10
2022-12-25T10:03:33.912Z,4.30
2022-12-25T10:06:13.992Z,4.30
2022-12-25T10:08:41.130Z,3.60
2022-12-25T10:11:26.903Z,3.53
2022-12-25T10:14:35.930Z,3.97
2022-12-25T10:17:11.991Z,4.35
2022-12-25T10:19:46.472Z,14.52
2022-12-25T10:22:17.351Z,6.60
2022-12-25T10:24:55.210Z,4.75
2022-12-25T10:27:42.694Z,5.65
2022-12-25T10:30:15.253Z,4.82
2022-12-25T10:32:42.599Z,4.15
2022-12-25T10:35:13.553Z,4.82
2022-12-25T10:37:41.615Z,3.78
2022-12-25T10:40:24.155Z,4.20
2022-12-25T10:42:55.041Z,3.97
2022-12-25T10:45:22.321Z,3.70
2022-12-25T10:47:54.993Z,4.32
2022-12-25T10:50:28.548Z,4.32
2022-12-25T10:53:00.120Z,4.13
2022-12-25T10:55:29.388Z,4.47
2022-12-25T10:57:57.842Z,4.63
2022-12-25T11:00:26.669Z,4.25
2022-12-25T11:02:54.298Z,4.28
2022-12-25T11:05:28.146Z,4.40
2022-12-25T11:07:56.108Z,3.80
2022-12-25T11:10:32.541Z,4.13
2022-12-25T11:13:00.729Z,4.20
2022-12-25T11:15:42.688Z,3.70
2022-12-25T11:18:19.666Z,4.20
2022-12-25T11:20:53.935Z,4.13
2022-12-25T11:23:22.168Z,4.43
2022-12-25T11:26:15.318Z,4.20
2022-12-25T11:28:43.499Z,6.63
2022-12-25T11:31:15.649Z,6.53
2022-12-25T11:33:49.026Z,5.00
2022-12-25T11:36:19.974Z,4.22
2022-12-25T11:38:47.251Z,4.43
2022-12-25T11:41:20.465Z,5.63
2022-12-25T11:43:49.425Z,5.38
2022-12-25T11:48:50.079Z,5.50
2022-12-25T11:51:18.268Z,5.82
2022-12-25T11:53:48.008Z,5.68
2022-12-25T11:56:15.062Z,4.68
2022-12-25T11:58:56.231Z,5.68
2022-12-25T12:03:50.515Z,6.05
2022-12-25T12:06:24.061Z,5.45
2022-12-25T12:08:53.849Z,6.22
2022-12-25T12:11:24.406Z,6.55
2022-12-25T12:13:51.582Z,6.25
2022-12-25T12:16:18.889Z,6.95
2022-12-25T12:18:50.334Z,7.03
2022-12-25T12:21:29.386Z,6.70
2022-12-25T12:24:05.676Z,6.72
2022-12-25T12:26:36.836Z,6.30
2022-12-25T12:29:05.237Z,6.00
2022-12-25T12:31:48.129Z,6.03
2022-12-25T12:34:22.530Z,7.65
2022-12-25T12:36:50.396Z,5.93
2022-12-25T12:39:23.101Z,5.55
2022-12-25T12:41:50.444Z,6.40
2022-12-25T12:44:18.011Z,6.40
2022-12-25T12:46:55.929Z,6.22
2022-12-25T12:49:27.441Z,6.47
2022-12-25T12:52:13.561Z,5.80
2022-12-25T12:55:01.116Z,8.65
2022-12-25T12:57:31.797Z,7.80
2022-12-25T13:00:04.750Z,6.97
2022-12-25T13:02:55.047Z,6.88
2022-12-25T13:05:35.606Z,7.90
2022-12-25T13:08:26.480Z,7.97
2022-12-25T13:11:03.940Z,6.82
2022-12-25T13:13:36.449Z,16.77
2022-12-25T13:16:04.758Z,6.75
2022-12-25T13:18:32.463Z,6.85
2022-12-25T13:21:01.533Z,6.53
2022-12-25T13:23:32.327Z,6.43
2022-12-25T13:26:19.685Z,6.78
2022-12-25T13:31:14.031Z,6.32
2022-12-25T13:33:42.483Z,6.72
2022-12-25T13:36:13.748Z,6.47
2022-12-25T13:38:45.986Z,7.13
2022-12-25T13:41:35.391Z,7.63
2022-12-25T13:44:03.149Z,7.25
2022-12-25T13:46:30.538Z,8.43
2022-12-25T13:49:01.312Z,7.55
2022-12-25T13:51:28.889Z,9.27
2022-12-25T13:54:06.153Z,7.97
2022-12-25T13:56:35.283Z,7.75
2022-12-25T13:59:02.577Z,7.93
2022-12-25T14:01:29.956Z,11.55
2022-12-25T14:03:57.384Z,8.20
2022-12-25T14:06:28.698Z,8.80
2022-12-25T14:08:57.799Z,8.73
2022-12-25T14:11:26.553Z,10.15
2022-12-25T14:13:57.181Z,8.88
2022-12-25T14:16:24.618Z,9.73
2022-12-25T14:19:02.445Z,9.35
2022-12-25T14:21:33.079Z,8.85
2022-12-25T14:24:00.942Z,9.20
2022-12-25T14:26:32.418Z,9.95
2022-12-25T14:29:05.699Z,10.15
2022-12-25T14:31:33.334Z,9.40
2022-12-25T14:34:05.418Z,9.45
2022-12-25T14:36:33.125Z,9.15
2022-12-25T14:39:03.345Z,8.70
2022-12-25T14:41:41.934Z,9.55
2022-12-25T14:44:28.005Z,10.40
2022-12-25T14:47:24.810Z,8.18
2022-12-25T14:49:53.718Z,9.30
2022-12-25T14:54:49.623Z,6.90
2022-12-25T14:59:43.820Z,9.18
2022-12-25T15:02:19.333Z,10.10
2022-12-25T15:04:46.646Z,9.65
2022-12-25T15:07:43.486Z,7.63
2022-12-25T15:10:57.546Z,8.32
2022-12-25T15:13:00.932Z,7.65
2022-12-25T15:15:28.900Z,9.40
2022-12-25T15:17:56.120Z,10.15
2022-12-25T15:20:29.591Z,8.23
2022-12-25T15:23:18.491Z,9.25
2022-12-25T15:25:43.928Z,10.68
2022-12-25T15:28:13.106Z,11.85
2022-12-25T15:30:41.001Z,17.40
2022-12-25T15:33:08.566Z,16.33
2022-12-25T15:35:38.451Z,15.68
2022-12-25T15:38:06.711Z,13.98
2022-12-25T15:40:34.677Z,13.48
2022-12-25T15:43:06.347Z,37.22
2022-12-25T15:45:38.756Z,16.15
2022-12-25T15:48:06.112Z,13.10
2022-12-25T15:50:36.666Z,14.63
2022-12-25T15:53:04.007Z,12.55
2022-12-25T15:55:31.186Z,11.20
2022-12-25T15:57:58.542Z,9.82
2022-12-25T16:00:26.289Z,8.82
2022-12-25T16:02:53.816Z,8.93
2022-12-25T16:05:21.970Z,11.35
2022-12-25T16:07:49.481Z,11.15
2022-12-25T16:10:18.183Z,10.32
2022-12-25T16:12:45.611Z,10.23
2022-12-25T16:15:14.131Z,10.73
2022-12-25T16:17:41.438Z,10.60
2022-12-25T16:20:09.367Z,11.18
2022-12-25T16:22:39.985Z,11.55
2022-12-25T16:25:13.520Z,11.25
2022-12-25T16:27:40.687Z,11.93
2022-12-25T16:30:08.300Z,15.75
2022-12-25T16:32:35.433Z,15.27
2022-12-25T16:35:02.679Z,14.65
2022-12-25T16:37:30.018Z,15.23
2022-12-25T16:39:57.172Z,15.32
2022-12-25T16:42:24.546Z,14.90
2022-12-25T16:44:51.763Z,11.77
2022-12-25T16:47:19.197Z,12.15
2022-12-25T16:49:46.894Z,11.55
2022-12-25T16:52:14.032Z,12.10
2022-12-25T16:54:41.118Z,12.00
2022-12-25T16:57:08.318Z,12.05
2022-12-25T16:59:35.928Z,17.13
2022-12-25T17:02:03.568Z,15.35
2022-12-25T17:04:30.868Z,13.63
2022-12-25T17:06:58.015Z,16.15
2022-12-25T17:09:25.189Z,19.00
2022-12-25T17:11:52.843Z,16.60
2022-12-25T17:14:20.112Z,16.30
2022-12-25T17:16:47.313Z,15.13
2022-12-25T17:19:21.728Z,13.65
2022-12-25T17:21:48.857Z,17.67
2022-12-25T17:24:16.368Z,22.42
2022-12-25T17:26:44.087Z,19.40
2022-12-25T17:29:14.726Z,18.33
2022-12-25T17:31:45.853Z,18.60
2022-12-25T17:34:14.606Z,25.35
2022-12-25T17:36:41.799Z,38.75
2022-12-25T17:39:08.931Z,46.03
2022-12-25T17:41:36.301Z,36.20
2022-12-25T17:44:03.612Z,35.00
2022-12-25T17:46:31.060Z,19.60
2022-12-25T17:48:59.452Z,17.60
2022-12-25T17:51:27.448Z,19.88
2022-12-25T17:53:57.004Z,18.85
2022-12-25T17:56:24.445Z,18.80
2022-12-25T17:58:52.601Z,16.67
2022-12-25T18:01:20.179Z,20.27
2022-12-25T18:03:47.794Z,24.58
2022-12-25T18:06:17.376Z,20.15
2022-12-25T18:08:45.766Z,18.73
2022-12-25T18:11:17.561Z,18.30
2022-12-25T18:13:47.774Z,16.58
2022-12-25T18:16:18.363Z,19.25
2022-12-25T18:18:51.965Z,13.73
2022-12-25T18:21:19.729Z,15.15
2022-12-25T18:23:46.932Z,13.90
2022-12-25T18:26:14.248Z,15.27
2022-12-25T18:28:42.606Z,17.52
2022-12-25T18:31:11.288Z,20.20
2022-12-25T18:33:38.536Z,18.67
2022-12-25T18:36:05.902Z,16.75
2022-12-25T18:38:33.256Z,16.63
2022-12-25T18:41:00.438Z,16.85
2022-12-25T18:43:53.020Z,19.23
2022-12-25T18:46:15.645Z,16.67
2022-12-25T18:48:42.795Z,16.05
2022-12-25T18:51:11.887Z,15.25
2022-12-25T18:53:39.040Z,15.85
2022-12-25T18:56:08.086Z,16.90
2022-12-25T18:58:36.223Z,15.95
2022-12-25T19:01:10.175Z,22.35
2022-12-25T19:03:37.473Z,29.23
2022-12-25T19:06:04.748Z,22.58
2022-12-25T19:08:31.912Z,23.13
2022-12-25T19:10:59.117Z,26.50
2022-12-25T19:13:26.326Z,19.15
2022-12-25T19:15:53.613Z,16.25
2022-12-25T19:18:20.740Z,17.65
2022-12-25T19:20:47.853Z,16.40
2022-12-25T19:23:15.269Z,18.58
2022-12-25T19:25:42.433Z,15.60
2022-12-25T19:28:09.756Z,15.77
2022-12-25T19:30:38.367Z,17.73
2022-12-25T19:33:06.518Z,18.58
2022-12-25T19:35:34.727Z,17.00
2022-12-25T19:38:01.886Z,16.40
2022-12-25T19:40:29.063Z,16.92
2022-12-25T19:42:56.223Z,17.13
2022-12-25T19:45:24.355Z,18.42
2022-12-25T19:47:51.494Z,15.65
2022-12-25T19:50:18.850Z,15.77
2022-12-25T19:52:46.121Z,14.75
2022-12-25T19:55:13.268Z,17.38
2022-12-25T19:57:40.786Z,24.13
2022-12-25T20:00:08.356Z,32.83
2022-12-25T20:02:35.716Z,27.15
2022-12-25T20:05:02.905Z,21.00
2022-12-25T20:07:30.259Z,20.13
2022-12-25T20:09:57.416Z,22.75
2022-12-25T20:12:24.741Z,25.75
2022-12-25T20:14:52.027Z,22.92
2022-12-25T20:17:19.235Z,22.20
2022-12-25T20:19:46.433Z,24.73
2022-12-25T20:22:13.545Z,19.83
2022-12-25T20:24:40.674Z,16.65
2022-12-25T20:27:07.843Z,17.35
2022-12-25T20:29:35.196Z,18.00
2022-12-25T20:32:02.456Z,18.00
2022-12-25T20:34:29.702Z,16.65
2022-12-25T20:36:58.148Z,14.52
2022-12-25T20:39:25.377Z,16.95
2022-12-25T20:41:52.601Z,15.27
2022-12-25T20:44:19.932Z,14.02
2022-12-25T20:46:47.110Z,13.55
2022-12-25T20:49:14.481Z,14.27
2022-12-25T20:51:41.741Z,15.13
2022-12-25T20:54:10.526Z,19.00
2022-12-25T20:56:57.240Z,28.05
2022-12-25T20:59:24.487Z,28.10
2022-12-25T21:01:51.903Z,50.38
2022-12-25T21:04:19.155Z,29.63
2022-12-25T21:06:46.328Z,27.80
2022-12-25T21:09:13.495Z,18.20
2022-12-25T21:11:40.909Z,14.52
2022-12-25T21:14:08.253Z,15.02
2022-12-25T21:16:35.562Z,16.55
2022-12-25T21:19:02.935Z,18.98
2022-12-25T21:21:30.093Z,14.07
2022-12-25T21:23:57.592Z,15.15
2022-12-25T21:26:29.382Z,14.93
2022-12-25T21:28:57.501Z,15.18
2022-12-25T21:31:25.557Z,15.32
2022-12-25T21:33:54.274Z,14.60
2022-12-25T21:36:31.854Z,14.43
2022-12-25T21:39:02.153Z,15.32
2022-12-25T21:41:29.977Z,14.23
2022-12-25T21:43:57.520Z,14.35
2022-12-25T21:46:25.586Z,13.65
2022-12-25T21:48:53.184Z,14.65
2022-12-25T21:51:40.256Z,14.63
2022-12-25T21:54:07.786Z,14.40
2022-12-25T21:56:43.064Z,12.82
2022-12-25T21:59:12.981Z,13.52
2022-12-25T22:01:40.273Z,12.15
2022-12-25T22:04:08.613Z,11.68
2022-12-25T22:06:54.604Z,11.07
2022-12-25T22:09:22.415Z,10.68
2022-12-25T22:12:08.229Z,10.60
2022-12-25T22:14:54.218Z,10.15
2022-12-25T22:17:42.228Z,9.60
2022-12-25T22:20:11.048Z,10.02
2022-12-25T22:22:38.460Z,9.07
2022-12-25T22:25:06.387Z,9.75
2022-12-25T22:27:34.704Z,9.60
2022-12-25T22:30:01.926Z,10.43
2022-12-25T22:32:29.248Z,9.35
2022-12-25T22:34:56.578Z,9.50
2022-12-25T22:37:24.278Z,10.02
2022-12-25T22:39:51.445Z,10.70
2022-12-25T22:42:18.925Z,10.73
2022-12-25T22:44:47.979Z,9.20
2022-12-25T22:47:15.375Z,9.35
2022-12-25T22:49:42.517Z,9.05
2022-12-25T22:52:10.399Z,9.65
2022-12-25T22:54:37.917Z,9.23
2022-12-25T22:57:05.424Z,9.68
2022-12-25T22:59:33.042Z,9.23
2022-12-25T23:02:01.086Z,8.50
2022-12-25T23:04:28.929Z,9.15
2022-12-25T23:06:56.062Z,8.07
2022-12-25T23:09:27.741Z,7.78
2022-12-25T23:11:58.492Z,8.65
2022-12-25T23:14:41.687Z,7.88
2022-12-25T23:17:31.384Z,7.63
2022-12-25T23:20:18.501Z,8.15
2022-12-25T23:23:04.464Z,8.57
2022-12-25T23:25:50.730Z,7.82
2022-12-25T23:28:37.950Z,7.70
2022-12-25T23:31:05.585Z,6.70
2022-12-25T23:33:32.950Z,6.82
2022-12-25T23:36:00.087Z,7.47
2022-12-25T23:38:27.191Z,8.25
2022-12-25T23:40:54.411Z,8.88
2022-12-25T23:43:21.717Z,7.35
2022-12-25T23:45:48.949Z,8.15
2022-12-25T23:48:16.069Z,7.88
2022-12-25T23:50:43.322Z,8.80
2022-12-25T23:53:11.116Z,7.07
2022-12-25T23:55:38.492Z,8.25
2022-12-25T23:58:06.053Z,8.63
